sensor_id;sensor_type;location;lat;lon;timestamp;temperature;humidity
6627;DHT22;3349;49.830;8.748;2023-04-06T00:00:35;0.60;69.10
6627;DHT22;3349;49.830;8.748;2023-04-06T00:03:03;0.60;68.90
6627;DHT22;3349;49.830;8.748;2023-04-06T00:05:30;0.60;69.40
6627;DHT22;3349;49.830;8.748;2023-04-06T00:07:57;0.50;69.20
6627;DHT22;3349;49.830;8.748;2023-04-06T00:10:25;0.50;68.90
6627;DHT22;3349;49.830;8.748;2023-04-06T00:12:52;0.50;69.00
6627;DHT22;3349;49.830;8.748;2023-04-06T00:15:19;0.40;69.40
6627;DHT22;3349;49.830;8.748;2023-04-06T00:17:46;0.40;70.10
6627;DHT22;3349;49.830;8.748;2023-04-06T00:20:15;0.50;70.70
6627;DHT22;3349;49.830;8.748;2023-04-06T00:22:43;0.40;70.50
6627;DHT22;3349;49.830;8.748;2023-04-06T00:25:10;0.40;70.90
6627;DHT22;3349;49.830;8.748;2023-04-06T00:27:37;0.40;70.70
6627;DHT22;3349;49.830;8.748;2023-04-06T00:30:05;0.40;70.80
6627;DHT22;3349;49.830;8.748;2023-04-06T00:32:33;0.40;71.00
6627;DHT22;3349;49.830;8.748;2023-04-06T00:35:01;0.30;71.60
6627;DHT22;3349;49.830;8.748;2023-04-06T00:37:30;0.30;71.80
6627;DHT22;3349;49.830;8.748;2023-04-06T00:39:56;0.30;72.20
6627;DHT22;3349;49.830;8.748;2023-04-06T00:42:24;0.40;73.60
6627;DHT22;3349;49.830;8.748;2023-04-06T00:44:52;0.50;73.40
6627;DHT22;3349;49.830;8.748;2023-04-06T00:47:19;0.50;73.00
6627;DHT22;3349;49.830;8.748;2023-04-06T00:49:46;0.60;73.20
6627;DHT22;3349;49.830;8.748;2023-04-06T00:52:13;0.60;73.30
6627;DHT22;3349;49.830;8.748;2023-04-06T00:54:41;0.60;72.20
6627;DHT22;3349;49.830;8.748;2023-04-06T00:57:08;0.60;71.90
6627;DHT22;3349;49.830;8.748;2023-04-06T00:59:35;0.60;72.10
6627;DHT22;3349;49.830;8.748;2023-04-06T01:02:02;0.60;72.40
6627;DHT22;3349;49.830;8.748;2023-04-06T01:04:29;0.60;72.30
6627;DHT22;3349;49.830;8.748;2023-04-06T01:06:56;0.60;72.00
6627;DHT22;3349;49.830;8.748;2023-04-06T01:09:23;0.60;72.30
6627;DHT22;3349;49.830;8.748;2023-04-06T01:11:51;0.60;72.70
6627;DHT22;3349;49.830;8.748;2023-04-06T01:14:18;0.60;72.80
6627;DHT22;3349;49.830;8.748;2023-04-06T01:16:45;0.60;73.20
6627;DHT22;3349;49.830;8.748;2023-04-06T01:19:13;0.60;73.50
6627;DHT22;3349;49.830;8.748;2023-04-06T01:21:41;0.50;73.70
6627;DHT22;3349;49.830;8.748;2023-04-06T01:24:09;0.50;74.10
6627;DHT22;3349;49.830;8.748;2023-04-06T01:26:37;0.50;74.10
6627;DHT22;3349;49.830;8.748;2023-04-06T01:29:04;0.40;74.80
6627;DHT22;3349;49.830;8.748;2023-04-06T01:31:31;0.40;74.90
6627;DHT22;3349;49.830;8.748;2023-04-06T01:33:58;0.40;76.10
6627;DHT22;3349;49.830;8.748;2023-04-06T01:36:25;0.40;75.90
6627;DHT22;3349;49.830;8.748;2023-04-06T01:38:52;0.40;75.60
6627;DHT22;3349;49.830;8.748;2023-04-06T01:41:20;0.40;76.90
6627;DHT22;3349;49.830;8.748;2023-04-06T01:43:47;0.40;77.60
6627;DHT22;3349;49.830;8.748;2023-04-06T01:46:15;0.30;76.90
6627;DHT22;3349;49.830;8.748;2023-04-06T01:48:41;0.30;76.90
6627;DHT22;3349;49.830;8.748;2023-04-06T01:51:08;0.20;77.10
6627;DHT22;3349;49.830;8.748;2023-04-06T01:53:35;0.20;77.00
6627;DHT22;3349;49.830;8.748;2023-04-06T01:56:02;0.20;77.60
6627;DHT22;3349;49.830;8.748;2023-04-06T01:58:30;0.10;77.60
6627;DHT22;3349;49.830;8.748;2023-04-06T02:00:57;0.10;77.70
6627;DHT22;3349;49.830;8.748;2023-04-06T02:03:24;0.10;78.20
6627;DHT22;3349;49.830;8.748;2023-04-06T02:05:50;0.10;78.90
6627;DHT22;3349;49.830;8.748;2023-04-06T02:08:17;0.00;78.90
6627;DHT22;3349;49.830;8.748;2023-04-06T02:10:44;0.00;79.20
6627;DHT22;3349;49.830;8.748;2023-04-06T02:13:11;0.00;79.60
6627;DHT22;3349;49.830;8.748;2023-04-06T02:15:39;-0.10;80.10
6627;DHT22;3349;49.830;8.748;2023-04-06T02:18:06;0.00;81.00
6627;DHT22;3349;49.830;8.748;2023-04-06T02:20:32;0.00;80.60
6627;DHT22;3349;49.830;8.748;2023-04-06T02:22:59;-0.10;80.50
6627;DHT22;3349;49.830;8.748;2023-04-06T02:25:26;-0.10;80.60
6627;DHT22;3349;49.830;8.748;2023-04-06T02:27:53;-0.10;80.60
6627;DHT22;3349;49.830;8.748;2023-04-06T02:30:20;-0.20;80.50
6627;DHT22;3349;49.830;8.748;2023-04-06T02:32:48;-0.20;80.90
6627;DHT22;3349;49.830;8.748;2023-04-06T02:35:15;-0.20;81.00
6627;DHT22;3349;49.830;8.748;2023-04-06T02:37:42;-0.20;81.50
6627;DHT22;3349;49.830;8.748;2023-04-06T02:40:10;-0.30;81.80
6627;DHT22;3349;49.830;8.748;2023-04-06T02:42:36;-0.30;82.30
6627;DHT22;3349;49.830;8.748;2023-04-06T02:45:04;-0.30;82.80
6627;DHT22;3349;49.830;8.748;2023-04-06T02:47:31;-0.30;82.80
6627;DHT22;3349;49.830;8.748;2023-04-06T02:49:59;-0.30;83.10
6627;DHT22;3349;49.830;8.748;2023-04-06T02:52:26;-0.30;82.90
6627;DHT22;3349;49.830;8.748;2023-04-06T02:54:53;-0.30;82.80
6627;DHT22;3349;49.830;8.748;2023-04-06T02:57:20;-0.30;82.80
6627;DHT22;3349;49.830;8.748;2023-04-06T02:59:47;-0.40;82.80
6627;DHT22;3349;49.830;8.748;2023-04-06T03:02:13;-0.30;83.30
6627;DHT22;3349;49.830;8.748;2023-04-06T03:04:41;-0.30;84.70
6627;DHT22;3349;49.830;8.748;2023-04-06T03:07:09;-0.30;85.30
6627;DHT22;3349;49.830;8.748;2023-04-06T03:09:37;-0.30;84.80
6627;DHT22;3349;49.830;8.748;2023-04-06T03:12:04;-0.30;84.20
6627;DHT22;3349;49.830;8.748;2023-04-06T03:14:31;-0.30;84.90
6627;DHT22;3349;49.830;8.748;2023-04-06T03:16:58;-0.40;84.50
6627;DHT22;3349;49.830;8.748;2023-04-06T03:19:25;-0.30;84.30
6627;DHT22;3349;49.830;8.748;2023-04-06T03:21:51;-0.40;84.00
6627;DHT22;3349;49.830;8.748;2023-04-06T03:24:20;-0.40;84.50
6627;DHT22;3349;49.830;8.748;2023-04-06T03:26:46;-0.40;85.00
6627;DHT22;3349;49.830;8.748;2023-04-06T03:29:13;-0.30;84.20
6627;DHT22;3349;49.830;8.748;2023-04-06T03:31:40;-0.30;84.00
6627;DHT22;3349;49.830;8.748;2023-04-06T03:34:07;-0.30;83.60
6627;DHT22;3349;49.830;8.748;2023-04-06T03:36:34;-0.40;83.20
6627;DHT22;3349;49.830;8.748;2023-04-06T03:39:01;-0.30;84.10
6627;DHT22;3349;49.830;8.748;2023-04-06T03:41:29;-0.40;83.50
6627;DHT22;3349;49.830;8.748;2023-04-06T03:43:56;-0.40;82.80
6627;DHT22;3349;49.830;8.748;2023-04-06T03:46:22;-0.50;82.80
6627;DHT22;3349;49.830;8.748;2023-04-06T03:48:50;-0.50;82.90
6627;DHT22;3349;49.830;8.748;2023-04-06T03:51:16;-0.50;83.50
6627;DHT22;3349;49.830;8.748;2023-04-06T03:53:43;-0.50;83.40
6627;DHT22;3349;49.830;8.748;2023-04-06T03:56:10;-0.60;84.20
6627;DHT22;3349;49.830;8.748;2023-04-06T03:58:38;-0.60;84.10
6627;DHT22;3349;49.830;8.748;2023-04-06T04:01:05;-0.60;85.10
6627;DHT22;3349;49.830;8.748;2023-04-06T04:03:32;-0.60;85.00
6627;DHT22;3349;49.830;8.748;2023-04-06T04:05:59;-0.70;85.30
6627;DHT22;3349;49.830;8.748;2023-04-06T04:08:26;-0.50;87.70
6627;DHT22;3349;49.830;8.748;2023-04-06T04:10:52;-0.60;86.70
6627;DHT22;3349;49.830;8.748;2023-04-06T04:13:19;-0.60;86.70
6627;DHT22;3349;49.830;8.748;2023-04-06T04:15:47;-0.60;86.70
6627;DHT22;3349;49.830;8.748;2023-04-06T04:18:14;-0.60;86.90
6627;DHT22;3349;49.830;8.748;2023-04-06T04:20:41;-0.60;86.70
6627;DHT22;3349;49.830;8.748;2023-04-06T04:23:08;-0.60;86.80
6627;DHT22;3349;49.830;8.748;2023-04-06T04:25:35;-0.60;87.50
6627;DHT22;3349;49.830;8.748;2023-04-06T04:28:01;-0.60;86.80
6627;DHT22;3349;49.830;8.748;2023-04-06T04:30:28;-0.70;86.60
6627;DHT22;3349;49.830;8.748;2023-04-06T04:32:57;-0.70;86.60
6627;DHT22;3349;49.830;8.748;2023-04-06T04:35:24;-0.70;86.70
6627;DHT22;3349;49.830;8.748;2023-04-06T04:37:50;-0.80;86.60
6627;DHT22;3349;49.830;8.748;2023-04-06T04:40:18;-0.70;88.00
6627;DHT22;3349;49.830;8.748;2023-04-06T04:42:44;-0.70;87.80
6627;DHT22;3349;49.830;8.748;2023-04-06T04:45:12;-0.80;87.40
6627;DHT22;3349;49.830;8.748;2023-04-06T04:47:39;-0.80;87.20
6627;DHT22;3349;49.830;8.748;2023-04-06T04:50:08;-0.80;87.10
6627;DHT22;3349;49.830;8.748;2023-04-06T04:52:36;-0.80;87.00
6627;DHT22;3349;49.830;8.748;2023-04-06T04:55:04;-0.80;87.90
6627;DHT22;3349;49.830;8.748;2023-04-06T04:57:31;-0.80;88.30
6627;DHT22;3349;49.830;8.748;2023-04-06T04:59:58;-0.80;88.10
6627;DHT22;3349;49.830;8.748;2023-04-06T05:02:25;-0.70;88.10
6627;DHT22;3349;49.830;8.748;2023-04-06T05:04:51;-0.70;87.60
6627;DHT22;3349;49.830;8.748;2023-04-06T05:07:20;-0.70;87.40
6627;DHT22;3349;49.830;8.748;2023-04-06T05:09:46;-0.80;86.90
6627;DHT22;3349;49.830;8.748;2023-04-06T05:12:13;-0.80;86.80
6627;DHT22;3349;49.830;8.748;2023-04-06T05:14:40;-0.80;86.70
6627;DHT22;3349;49.830;8.748;2023-04-06T05:17:07;-0.70;86.90
6627;DHT22;3349;49.830;8.748;2023-04-06T05:19:34;-0.70;87.10
6627;DHT22;3349;49.830;8.748;2023-04-06T05:22:01;-0.70;87.30
6627;DHT22;3349;49.830;8.748;2023-04-06T05:24:29;-0.70;87.70
6627;DHT22;3349;49.830;8.748;2023-04-06T05:26:56;-0.60;88.40
6627;DHT22;3349;49.830;8.748;2023-04-06T05:29:25;-0.60;88.40
6627;DHT22;3349;49.830;8.748;2023-04-06T05:31:52;-0.60;86.90
6627;DHT22;3349;49.830;8.748;2023-04-06T05:34:19;-0.50;87.70
6627;DHT22;3349;49.830;8.748;2023-04-06T05:36:45;-0.50;86.90
6627;DHT22;3349;49.830;8.748;2023-04-06T05:39:13;-0.40;86.80
6627;DHT22;3349;49.830;8.748;2023-04-06T05:41:41;-0.40;87.00
6627;DHT22;3349;49.830;8.748;2023-04-06T05:44:08;-0.40;86.80
6627;DHT22;3349;49.830;8.748;2023-04-06T05:46:35;-0.30;87.00
6627;DHT22;3349;49.830;8.748;2023-04-06T05:49:02;-0.20;87.20
6627;DHT22;3349;49.830;8.748;2023-04-06T05:51:28;-0.10;87.10
6627;DHT22;3349;49.830;8.748;2023-04-06T05:53:55;0.00;86.50
6627;DHT22;3349;49.830;8.748;2023-04-06T05:56:23;0.00;85.70
6627;DHT22;3349;49.830;8.748;2023-04-06T05:58:52;0.10;85.60
6627;DHT22;3349;49.830;8.748;2023-04-06T06:01:18;0.10;85.10
6627;DHT22;3349;49.830;8.748;2023-04-06T06:03:45;0.20;84.70
6627;DHT22;3349;49.830;8.748;2023-04-06T06:06:12;0.20;84.30
6627;DHT22;3349;49.830;8.748;2023-04-06T06:08:39;0.30;84.10
6627;DHT22;3349;49.830;8.748;2023-04-06T06:11:06;0.40;84.20
6627;DHT22;3349;49.830;8.748;2023-04-06T06:13:33;0.40;83.40
6627;DHT22;3349;49.830;8.748;2023-04-06T06:16:01;0.40;83.40
6627;DHT22;3349;49.830;8.748;2023-04-06T06:18:30;0.50;83.40
6627;DHT22;3349;49.830;8.748;2023-04-06T06:20:57;0.60;83.70
6627;DHT22;3349;49.830;8.748;2023-04-06T06:23:24;0.60;82.20
6627;DHT22;3349;49.830;8.748;2023-04-06T06:25:51;0.70;81.20
6627;DHT22;3349;49.830;8.748;2023-04-06T06:28:19;0.70;81.30
6627;DHT22;3349;49.830;8.748;2023-04-06T06:30:45;0.80;80.70
6627;DHT22;3349;49.830;8.748;2023-04-06T06:33:14;0.90;80.50
6627;DHT22;3349;49.830;8.748;2023-04-06T06:35:40;1.00;80.00
6627;DHT22;3349;49.830;8.748;2023-04-06T06:38:07;1.10;80.20
6627;DHT22;3349;49.830;8.748;2023-04-06T06:40:34;1.20;81.60
6627;DHT22;3349;49.830;8.748;2023-04-06T06:43:01;1.30;81.60
6627;DHT22;3349;49.830;8.748;2023-04-06T06:45:28;1.40;81.20
6627;DHT22;3349;49.830;8.748;2023-04-06T06:47:56;1.60;82.20
6627;DHT22;3349;49.830;8.748;2023-04-06T06:50:24;1.80;81.90
6627;DHT22;3349;49.830;8.748;2023-04-06T06:52:51;1.90;81.80
6627;DHT22;3349;49.830;8.748;2023-04-06T06:55:18;2.00;81.60
6627;DHT22;3349;49.830;8.748;2023-04-06T06:57:45;2.20;80.90
6627;DHT22;3349;49.830;8.748;2023-04-06T07:00:13;2.40;77.80
6627;DHT22;3349;49.830;8.748;2023-04-06T07:02:40;2.60;76.30
6627;DHT22;3349;49.830;8.748;2023-04-06T07:05:07;2.90;69.70
6627;DHT22;3349;49.830;8.748;2023-04-06T07:07:35;3.10;67.90
6627;DHT22;3349;49.830;8.748;2023-04-06T07:10:03;3.50;67.20
6627;DHT22;3349;49.830;8.748;2023-04-06T07:12:30;4.00;63.50
6627;DHT22;3349;49.830;8.748;2023-04-06T07:14:57;4.30;61.70
6627;DHT22;3349;49.830;8.748;2023-04-06T07:17:23;4.50;61.30
6627;DHT22;3349;49.830;8.748;2023-04-06T07:19:50;4.60;60.90
6627;DHT22;3349;49.830;8.748;2023-04-06T07:22:18;4.70;61.80
6627;DHT22;3349;49.830;8.748;2023-04-06T07:24:46;4.80;61.20
6627;DHT22;3349;49.830;8.748;2023-04-06T07:27:13;4.90;59.80
6627;DHT22;3349;49.830;8.748;2023-04-06T07:29:39;5.10;57.70
6627;DHT22;3349;49.830;8.748;2023-04-06T07:32:06;5.30;55.10
6627;DHT22;3349;49.830;8.748;2023-04-06T07:34:33;6.00;52.20
6627;DHT22;3349;49.830;8.748;2023-04-06T07:37:00;6.70;48.40
6627;DHT22;3349;49.830;8.748;2023-04-06T07:39:28;7.10;45.30
6627;DHT22;3349;49.830;8.748;2023-04-06T07:41:57;7.40;45.30
6627;DHT22;3349;49.830;8.748;2023-04-06T07:44:24;7.90;43.30
6627;DHT22;3349;49.830;8.748;2023-04-06T07:46:50;8.40;41.50
6627;DHT22;3349;49.830;8.748;2023-04-06T07:49:17;8.90;40.60
6627;DHT22;3349;49.830;8.748;2023-04-06T07:51:46;8.90;40.20
6627;DHT22;3349;49.830;8.748;2023-04-06T07:54:13;9.20;40.80
6627;DHT22;3349;49.830;8.748;2023-04-06T07:56:40;9.30;40.50
6627;DHT22;3349;49.830;8.748;2023-04-06T07:59:08;9.40;40.60
6627;DHT22;3349;49.830;8.748;2023-04-06T08:01:36;9.40;39.90
6627;DHT22;3349;49.830;8.748;2023-04-06T08:04:03;9.50;40.20
6627;DHT22;3349;49.830;8.748;2023-04-06T08:06:30;10.00;39.00
6627;DHT22;3349;49.830;8.748;2023-04-06T08:08:57;10.30;36.50
6627;DHT22;3349;49.830;8.748;2023-04-06T08:11:24;10.40;37.30
6627;DHT22;3349;49.830;8.748;2023-04-06T08:13:52;10.50;35.50
6627;DHT22;3349;49.830;8.748;2023-04-06T08:16:20;10.60;35.70
6627;DHT22;3349;49.830;8.748;2023-04-06T08:18:47;10.70;34.30
6627;DHT22;3349;49.830;8.748;2023-04-06T08:21:14;10.70;34.10
6627;DHT22;3349;49.830;8.748;2023-04-06T08:23:41;10.80;32.90
6627;DHT22;3349;49.830;8.748;2023-04-06T08:26:08;10.70;35.40
6627;DHT22;3349;49.830;8.748;2023-04-06T08:28:35;10.70;32.60
6627;DHT22;3349;49.830;8.748;2023-04-06T08:31:04;10.50;33.70
6627;DHT22;3349;49.830;8.748;2023-04-06T08:33:33;10.20;32.40
6627;DHT22;3349;49.830;8.748;2023-04-06T08:36:08;10.00;32.80
6627;DHT22;3349;49.830;8.748;2023-04-06T08:38:35;9.80;34.30
6627;DHT22;3349;49.830;8.748;2023-04-06T08:41:07;9.80;35.80
6627;DHT22;3349;49.830;8.748;2023-04-06T08:43:38;9.80;35.60
6627;DHT22;3349;49.830;8.748;2023-04-06T08:46:08;9.80;34.40
6627;DHT22;3349;49.830;8.748;2023-04-06T08:48:38;9.70;35.10
6627;DHT22;3349;49.830;8.748;2023-04-06T08:51:05;9.90;35.30
6627;DHT22;3349;49.830;8.748;2023-04-06T08:53:32;10.10;35.00
6627;DHT22;3349;49.830;8.748;2023-04-06T08:56:00;10.20;34.00
6627;DHT22;3349;49.830;8.748;2023-04-06T08:58:34;10.10;32.30
6627;DHT22;3349;49.830;8.748;2023-04-06T09:01:02;10.30;33.20
6627;DHT22;3349;49.830;8.748;2023-04-06T09:03:37;10.30;33.40
6627;DHT22;3349;49.830;8.748;2023-04-06T09:06:05;10.30;31.90
6627;DHT22;3349;49.830;8.748;2023-04-06T09:08:33;10.40;31.00
6627;DHT22;3349;49.830;8.748;2023-04-06T09:11:01;10.30;30.50
6627;DHT22;3349;49.830;8.748;2023-04-06T09:13:28;10.60;31.60
6627;DHT22;3349;49.830;8.748;2023-04-06T09:16:02;10.90;30.80
6627;DHT22;3349;49.830;8.748;2023-04-06T09:18:29;11.10;29.80
6627;DHT22;3349;49.830;8.748;2023-04-06T09:20:59;11.90;28.50
6627;DHT22;3349;49.830;8.748;2023-04-06T09:23:26;12.60;28.50
6627;DHT22;3349;49.830;8.748;2023-04-06T09:26:07;13.80;27.30
6627;DHT22;3349;49.830;8.748;2023-04-06T09:28:45;15.20;24.60
6627;DHT22;3349;49.830;8.748;2023-04-06T09:31:13;16.30;22.70
6627;DHT22;3349;49.830;8.748;2023-04-06T09:33:41;16.50;21.90
6627;DHT22;3349;49.830;8.748;2023-04-06T09:36:10;17.30;20.80
6627;DHT22;3349;49.830;8.748;2023-04-06T09:38:38;17.60;20.80
6627;DHT22;3349;49.830;8.748;2023-04-06T09:41:05;17.90;20.30
6627;DHT22;3349;49.830;8.748;2023-04-06T09:43:32;17.80;19.20
6627;DHT22;3349;49.830;8.748;2023-04-06T09:46:00;18.70;18.80
6627;DHT22;3349;49.830;8.748;2023-04-06T09:48:31;18.50;18.60
6627;DHT22;3349;49.830;8.748;2023-04-06T09:51:00;19.40;18.30
6627;DHT22;3349;49.830;8.748;2023-04-06T09:53:31;20.60;17.40
6627;DHT22;3349;49.830;8.748;2023-04-06T09:56:03;20.60;17.40
6627;DHT22;3349;49.830;8.748;2023-04-06T09:58:36;21.30;16.70
6627;DHT22;3349;49.830;8.748;2023-04-06T10:01:08;20.80;16.80
6627;DHT22;3349;49.830;8.748;2023-04-06T10:03:43;20.70;16.40
6627;DHT22;3349;49.830;8.748;2023-04-06T10:06:13;20.60;17.00
6627;DHT22;3349;49.830;8.748;2023-04-06T10:08:43;20.50;16.80
6627;DHT22;3349;49.830;8.748;2023-04-06T10:11:12;21.00;16.50
6627;DHT22;3349;49.830;8.748;2023-04-06T10:13:39;21.30;16.80
6627;DHT22;3349;49.830;8.748;2023-04-06T10:16:07;22.10;15.90
6627;DHT22;3349;49.830;8.748;2023-04-06T10:18:34;22.00;15.40
6627;DHT22;3349;49.830;8.748;2023-04-06T10:21:05;22.30;15.20
6627;DHT22;3349;49.830;8.748;2023-04-06T10:23:35;23.20;15.50
6627;DHT22;3349;49.830;8.748;2023-04-06T10:26:04;23.50;14.60
6627;DHT22;3349;49.830;8.748;2023-04-06T10:28:31;24.10;15.00
6627;DHT22;3349;49.830;8.748;2023-04-06T10:30:59;23.70;13.80
6627;DHT22;3349;49.830;8.748;2023-04-06T10:33:27;22.70;15.10
6627;DHT22;3349;49.830;8.748;2023-04-06T10:35:54;22.80;15.10
6627;DHT22;3349;49.830;8.748;2023-04-06T10:38:33;23.20;14.90
6627;DHT22;3349;49.830;8.748;2023-04-06T10:41:05;22.90;14.80
6627;DHT22;3349;49.830;8.748;2023-04-06T10:43:34;21.50;14.90
6627;DHT22;3349;49.830;8.748;2023-04-06T10:46:02;21.80;15.50
6627;DHT22;3349;49.830;8.748;2023-04-06T10:48:37;21.60;15.40
6627;DHT22;3349;49.830;8.748;2023-04-06T10:51:08;22.30;15.10
6627;DHT22;3349;49.830;8.748;2023-04-06T10:53:36;23.00;15.00
6627;DHT22;3349;49.830;8.748;2023-04-06T10:56:04;22.60;14.00
6627;DHT22;3349;49.830;8.748;2023-04-06T10:58:35;22.80;14.20
6627;DHT22;3349;49.830;8.748;2023-04-06T11:01:03;22.90;13.70
6627;DHT22;3349;49.830;8.748;2023-04-06T11:03:30;22.00;14.60
6627;DHT22;3349;49.830;8.748;2023-04-06T11:05:57;20.50;15.40
6627;DHT22;3349;49.830;8.748;2023-04-06T11:08:29;20.30;15.40
6627;DHT22;3349;49.830;8.748;2023-04-06T11:11:08;21.60;15.90
6627;DHT22;3349;49.830;8.748;2023-04-06T11:13:40;21.90;15.00
6627;DHT22;3349;49.830;8.748;2023-04-06T11:16:11;22.10;15.20
6627;DHT22;3349;49.830;8.748;2023-04-06T11:18:45;23.20;15.20
6627;DHT22;3349;49.830;8.748;2023-04-06T11:21:12;24.10;14.00
6627;DHT22;3349;49.830;8.748;2023-04-06T11:23:39;23.90;13.80
6627;DHT22;3349;49.830;8.748;2023-04-06T11:26:10;23.70;13.80
6627;DHT22;3349;49.830;8.748;2023-04-06T11:28:37;23.40;14.30
6627;DHT22;3349;49.830;8.748;2023-04-06T11:31:04;23.00;14.30
6627;DHT22;3349;49.830;8.748;2023-04-06T11:33:35;21.70;14.50
6627;DHT22;3349;49.830;8.748;2023-04-06T11:36:02;22.00;15.90
6627;DHT22;3349;49.830;8.748;2023-04-06T11:38:30;22.30;14.90
6627;DHT22;3349;49.830;8.748;2023-04-06T11:40:56;21.60;15.20
6627;DHT22;3349;49.830;8.748;2023-04-06T11:43:27;21.40;15.10
6627;DHT22;3349;49.830;8.748;2023-04-06T11:46:00;21.60;15.40
6627;DHT22;3349;49.830;8.748;2023-04-06T11:48:27;21.60;14.90
6627;DHT22;3349;49.830;8.748;2023-04-06T11:50:56;21.90;14.90
6627;DHT22;3349;49.830;8.748;2023-04-06T11:53:23;22.50;15.00
6627;DHT22;3349;49.830;8.748;2023-04-06T11:55:50;23.00;14.50
6627;DHT22;3349;49.830;8.748;2023-04-06T11:58:17;23.10;14.30
6627;DHT22;3349;49.830;8.748;2023-04-06T12:00:45;22.80;13.60
6627;DHT22;3349;49.830;8.748;2023-04-06T12:03:12;22.70;13.60
6627;DHT22;3349;49.830;8.748;2023-04-06T12:05:39;22.20;14.10
6627;DHT22;3349;49.830;8.748;2023-04-06T12:08:06;22.10;14.40
6627;DHT22;3349;49.830;8.748;2023-04-06T12:10:33;22.20;14.80
6627;DHT22;3349;49.830;8.748;2023-04-06T12:13:00;21.30;14.60
6627;DHT22;3349;49.830;8.748;2023-04-06T12:15:27;20.50;15.30
6627;DHT22;3349;49.830;8.748;2023-04-06T12:17:55;20.00;15.60
6627;DHT22;3349;49.830;8.748;2023-04-06T12:20:22;19.70;16.80
6627;DHT22;3349;49.830;8.748;2023-04-06T12:22:49;19.40;16.70
6627;DHT22;3349;49.830;8.748;2023-04-06T12:25:16;19.50;16.70
6627;DHT22;3349;49.830;8.748;2023-04-06T12:27:43;19.30;16.60
6627;DHT22;3349;49.830;8.748;2023-04-06T12:30:10;19.30;16.60
6627;DHT22;3349;49.830;8.748;2023-04-06T12:32:37;19.10;16.50
6627;DHT22;3349;49.830;8.748;2023-04-06T12:35:06;18.20;17.00
6627;DHT22;3349;49.830;8.748;2023-04-06T12:37:34;18.20;17.60
6627;DHT22;3349;49.830;8.748;2023-04-06T12:40:02;17.70;17.40
6627;DHT22;3349;49.830;8.748;2023-04-06T12:42:29;17.50;17.40
6627;DHT22;3349;49.830;8.748;2023-04-06T12:44:56;17.70;18.40
6627;DHT22;3349;49.830;8.748;2023-04-06T12:47:25;17.70;17.40
6627;DHT22;3349;49.830;8.748;2023-04-06T12:49:53;17.40;18.80
6627;DHT22;3349;49.830;8.748;2023-04-06T12:52:22;17.60;17.80
6627;DHT22;3349;49.830;8.748;2023-04-06T12:54:49;17.20;17.00
6627;DHT22;3349;49.830;8.748;2023-04-06T12:57:16;16.90;18.20
6627;DHT22;3349;49.830;8.748;2023-04-06T12:59:44;17.00;18.90
6627;DHT22;3349;49.830;8.748;2023-04-06T13:02:11;16.70;18.50
6627;DHT22;3349;49.830;8.748;2023-04-06T13:04:38;16.40;18.80
6627;DHT22;3349;49.830;8.748;2023-04-06T13:07:05;16.30;19.40
6627;DHT22;3349;49.830;8.748;2023-04-06T13:09:34;16.00;19.40
6627;DHT22;3349;49.830;8.748;2023-04-06T13:12:00;16.10;19.60
6627;DHT22;3349;49.830;8.748;2023-04-06T13:14:27;15.70;19.50
6627;DHT22;3349;49.830;8.748;2023-04-06T13:16:55;15.10;19.90
6627;DHT22;3349;49.830;8.748;2023-04-06T13:19:21;15.10;21.00
6627;DHT22;3349;49.830;8.748;2023-04-06T13:21:49;15.20;20.40
6627;DHT22;3349;49.830;8.748;2023-04-06T13:24:15;15.50;20.50
6627;DHT22;3349;49.830;8.748;2023-04-06T13:26:44;15.50;20.40
6627;DHT22;3349;49.830;8.748;2023-04-06T13:29:10;15.80;20.90
6627;DHT22;3349;49.830;8.748;2023-04-06T13:31:37;15.90;20.30
6627;DHT22;3349;49.830;8.748;2023-04-06T13:34:04;16.00;20.30
6627;DHT22;3349;49.830;8.748;2023-04-06T13:36:31;15.50;20.40
6627;DHT22;3349;49.830;8.748;2023-04-06T13:38:58;15.40;20.70
6627;DHT22;3349;49.830;8.748;2023-04-06T13:41:25;15.50;21.20
6627;DHT22;3349;49.830;8.748;2023-04-06T13:43:54;15.50;20.80
6627;DHT22;3349;49.830;8.748;2023-04-06T13:46:21;15.40;20.40
6627;DHT22;3349;49.830;8.748;2023-04-06T13:48:49;15.10;21.50
6627;DHT22;3349;49.830;8.748;2023-04-06T13:51:16;15.00;21.00
6627;DHT22;3349;49.830;8.748;2023-04-06T13:53:43;14.80;20.80
6627;DHT22;3349;49.830;8.748;2023-04-06T13:56:09;14.50;20.60
6627;DHT22;3349;49.830;8.748;2023-04-06T13:58:36;14.40;21.50
6627;DHT22;3349;49.830;8.748;2023-04-06T14:01:06;14.50;21.60
6627;DHT22;3349;49.830;8.748;2023-04-06T14:03:34;14.60;21.40
6627;DHT22;3349;49.830;8.748;2023-04-06T14:06:01;14.60;20.60
6627;DHT22;3349;49.830;8.748;2023-04-06T14:08:35;14.60;20.60
6627;DHT22;3349;49.830;8.748;2023-04-06T14:11:02;14.60;20.60
6627;DHT22;3349;49.830;8.748;2023-04-06T14:13:29;14.50;20.60
6627;DHT22;3349;49.830;8.748;2023-04-06T14:15:56;14.40;21.20
6627;DHT22;3349;49.830;8.748;2023-04-06T14:18:24;14.50;21.60
6627;DHT22;3349;49.830;8.748;2023-04-06T14:20:56;14.50;20.60
6627;DHT22;3349;49.830;8.748;2023-04-06T14:23:24;14.40;21.50
6627;DHT22;3349;49.830;8.748;2023-04-06T14:25:52;14.30;21.60
6627;DHT22;3349;49.830;8.748;2023-04-06T14:28:26;14.30;21.10
6627;DHT22;3349;49.830;8.748;2023-04-06T14:30:53;14.10;21.30
6627;DHT22;3349;49.830;8.748;2023-04-06T14:33:20;14.10;21.80
6627;DHT22;3349;49.830;8.748;2023-04-06T14:35:48;14.20;21.60
6627;DHT22;3349;49.830;8.748;2023-04-06T14:38:15;14.20;22.20
6627;DHT22;3349;49.830;8.748;2023-04-06T14:40:41;14.10;21.80
6627;DHT22;3349;49.830;8.748;2023-04-06T14:43:08;14.10;22.40
6627;DHT22;3349;49.830;8.748;2023-04-06T14:45:35;14.20;22.10
6627;DHT22;3349;49.830;8.748;2023-04-06T14:48:02;14.20;21.60
6627;DHT22;3349;49.830;8.748;2023-04-06T14:50:31;14.10;21.90
6627;DHT22;3349;49.830;8.748;2023-04-06T14:53:00;14.10;22.50
6627;DHT22;3349;49.830;8.748;2023-04-06T14:55:27;14.00;22.00
6627;DHT22;3349;49.830;8.748;2023-04-06T14:57:53;14.00;22.60
6627;DHT22;3349;49.830;8.748;2023-04-06T15:00:20;13.90;21.80
6627;DHT22;3349;49.830;8.748;2023-04-06T15:02:47;13.80;21.90
6627;DHT22;3349;49.830;8.748;2023-04-06T15:05:14;13.80;22.00
6627;DHT22;3349;49.830;8.748;2023-04-06T15:07:43;13.90;22.30
6627;DHT22;3349;49.830;8.748;2023-04-06T15:10:12;13.90;23.20
6627;DHT22;3349;49.830;8.748;2023-04-06T15:12:39;14.00;22.00
6627;DHT22;3349;49.830;8.748;2023-04-06T15:15:06;14.00;22.10
6627;DHT22;3349;49.830;8.748;2023-04-06T15:17:33;14.10;22.10
6627;DHT22;3349;49.830;8.748;2023-04-06T15:20:00;14.20;21.90
6627;DHT22;3349;49.830;8.748;2023-04-06T15:22:26;14.10;22.00
6627;DHT22;3349;49.830;8.748;2023-04-06T15:24:53;14.10;22.00
6627;DHT22;3349;49.830;8.748;2023-04-06T15:27:21;14.10;22.20
6627;DHT22;3349;49.830;8.748;2023-04-06T15:29:51;14.00;22.30
6627;DHT22;3349;49.830;8.748;2023-04-06T15:32:27;14.00;22.90
6627;DHT22;3349;49.830;8.748;2023-04-06T15:34:58;13.90;22.60
6627;DHT22;3349;49.830;8.748;2023-04-06T15:37:25;13.80;22.60
6627;DHT22;3349;49.830;8.748;2023-04-06T15:39:52;13.80;22.10
6627;DHT22;3349;49.830;8.748;2023-04-06T15:42:20;13.60;21.90
6627;DHT22;3349;49.830;8.748;2023-04-06T15:44:48;13.50;22.40
6627;DHT22;3349;49.830;8.748;2023-04-06T15:47:15;13.50;22.20
6627;DHT22;3349;49.830;8.748;2023-04-06T15:49:42;13.40;22.60
6627;DHT22;3349;49.830;8.748;2023-04-06T15:52:08;13.30;22.90
6627;DHT22;3349;49.830;8.748;2023-04-06T15:54:35;13.40;22.80
6627;DHT22;3349;49.830;8.748;2023-04-06T15:57:05;13.30;22.20
6627;DHT22;3349;49.830;8.748;2023-04-06T15:59:34;13.20;22.80
6627;DHT22;3349;49.830;8.748;2023-04-06T16:02:00;13.20;22.80
6627;DHT22;3349;49.830;8.748;2023-04-06T16:04:28;13.10;23.20
6627;DHT22;3349;49.830;8.748;2023-04-06T16:06:55;13.10;23.20
6627;DHT22;3349;49.830;8.748;2023-04-06T16:09:22;13.00;23.50